Daniel Giménez

Olheiro - Villarreal
19 Ago 2027
Quinta-feira
Processo

Personalidade

Adaptabilidade (16) Ambição (19) Controvérsia (18) Lealdade (17) Pressão (14) Profissionalismo (9) Espírito Esportivo (17) Temperamento (4)

Perfil

Estilo de Treinamento Democrático
Licença Continental Pro
Determinação 8
Gestão de Pessoas 10
Motivação 11
Disciplina 7
Satisfação no Trabalho
100%
Fadiga
0%
Função Olheiro
Salário 95.9K p/s
Contrato 14.03.2030

Desempenho

Comportamento Bom
Eficácia do Treinamento
51%
Desenvolvimento do Jogador
40%
Prevenção de Lesões
45%
Implementação Tática
70%

Eventos Recentes

Participou de uma reunião de recrutamento 7d atrás
Recomendou um alvo de transferência 7d atrás
Participou de uma reunião de recrutamento 14d atrás
Recomendou um alvo de transferência 14d atrás
Participou de uma reunião de recrutamento 21d atrás
Recomendou um alvo de transferência 21d atrás
Participou de uma reunião de recrutamento 28d atrás
Recomendou um alvo de transferência 28d atrás

Monitorando agora

50
Jogador Clube Status Habilidade Confiança Observado Última observação Último voto
Alejandro Pozo Andorra Relatório pronto 130 / 120 86% 1 21.06.2027 -
Andrés Martín Racing Santander Relatório pronto 135 / 129 86% 1 01.06.2027 -
Jan Virgili Club Brugge Ativo 135 / 134 40% 1 31.05.2027 -
William Gomes Porto Ativo 144 / 143 40% 1 31.05.2027 -
Yusi Alavés Ativo 133 / 140 40% 3 27.05.2027 -
Ibrahim Maza Bayer Leverkusen Ativo 147 / 143 40% 2 27.05.2027 -
David Valencia Alianza Petrolera Ativo 125 / 131 40% 1 27.05.2027 -
Josh King Chelsea Ativo 140 / 139 40% 3 21.05.2027 -
Davide Bartesaghi AC Milan Ativo 134 / 139 40% 2 21.05.2027 -
Lucas Høgsberg RC Strasbourg Ativo 137 / 144 40% 2 19.05.2027 -
Matías Gómez Granada Ativo 116 / 120 40% 1 19.05.2027 -
Martim Cunha Porto Ativo 98 / 112 40% 1 16.05.2027 -
Yussif Saidu Zaragoza Ativo 125 / 120 40% 1 16.05.2027 -
Jofre Torrents Ajax Ativo 123 / 126 40% 1 11.05.2027 -
Noah Nartey Olympique Lyonnais Ativo 135 / 131 40% 1 11.05.2027 -
Toni Tamarit Alverca Ativo 113 / 116 40% 1 30.04.2027 -
Christ Inao Oulaï Fiorentina Ativo 136 / 133 40% 1 30.04.2027 -
Warren Zaïre-Emery Paris Saint-Germain Ativo 157 / 155 40% 1 30.04.2027 -
Ernie Weaver AFC Wimbledon Ativo 108 / 121 40% 2 29.04.2027 -
Dylan Lawlor Cardiff City Ativo 117 / 124 40% 1 29.04.2027 -
Gonçalo Oliveira Benfica Ativo 107 / 118 40% 1 28.04.2027 -
João Simões Sporting CP Ativo 129 / 132 40% 1 28.04.2027 -
Christos Mouzakitis Hull City Ativo 133 / 137 40% 1 27.04.2027 -
Riley Owen Trento Ativo 99 / 105 40% 1 27.04.2027 -
Keagan Tau Ajax Cape Town Ativo 97 / 105 40% 1 26.04.2027 -
Caleb Yirenkyi Coventry City Ativo 135 / 136 40% 1 26.04.2027 -
Juanlu Bournemouth Ativo 143 / 143 40% 1 31.12.2026 -
Johnny Cardoso Atlético Madrid Ativo 157 / 147 40% 1 31.12.2026 -
Pedro Porro Tottenham Ativo 147 / 150 40% 1 31.12.2026 -
Alfonso Herrero Málaga Ativo 130 / 122 40% 2 29.12.2026 -
David Soria Getafe Ativo 142 / 147 40% 2 29.12.2026 -
Pau López Andorra Ativo 142 / 139 40% 1 29.12.2026 -
Erick Reyes Toluca Negociando 146 / 145 40% 1 27.12.2026 -
Tomás Marchiori Vélez Ativo 129 / 127 40% 1 27.12.2026 -
Ander Cantero Burgos Ativo 123 / 122 40% 1 22.12.2026 -
Raúl Rangel Sporting CP Ativo 134 / 135 40% 1 22.12.2026 -
Jesús Iván Rodríguez Puebla Ativo 111 / 111 40% 2 21.12.2026 -
Joan García Barcelona Ativo 161 / 159 40% 1 21.12.2026 -
Álvaro Valles Betis Ativo 141 / 145 40% 1 16.12.2026 -
David Gil Cádiz Ativo 123 / 127 40% 1 16.12.2026 -
Facundo Cambeses Racing Club Ativo 125 / 128 40% 2 26.11.2026 -
Dean Henderson Crystal Palace Ativo 150 / 151 40% 1 26.11.2026 -
Julen Agirrezabala Racing Santander Ativo 142 / 141 40% 1 16.11.2026 -
Sergio Herrera Osasuna Ativo 139 / 132 40% 1 09.11.2026 -
Pol Tristán Barnsley Ativo 109 / 108 40% 1 09.11.2026 -
André Almeida Valencia Ativo 146 / 146 42% 1 / 1m 04.11.2026 -
Neco Celorio Racing Santander Ativo 101 / 104 30% 1 / 1m 04.11.2026 -
Rubén Sánchez Elche Ativo 127 / 127 30% 1 / 1m 04.11.2026 -
Omar El Hilali Espanyol Ativo 144 / 138 83% 1 03.08.2026 Aprovar
Róyner Benítez Aguilas Doradas Ativo 113 / 120 40% 1 01.08.2026 -